sensor_id;sensor_type;location;lat;lon;timestamp;pressure;altitude;pressure_sealevel;temperature;humidity
58622;BME280;44389;51.578;5.456;2023-03-03T00:00:23;102307.47;;;-1.07;100.00
58622;BME280;44389;51.578;5.456;2023-03-03T00:02:48;102314.34;;;-0.97;100.00
58622;BME280;44389;51.578;5.456;2023-03-03T00:05:14;102304.81;;;-0.91;100.00
58622;BME280;44389;51.578;5.456;2023-03-03T00:07:44;102310.03;;;-0.89;100.00
58622;BME280;44389;51.578;5.456;2023-03-03T00:10:11;102319.44;;;-0.79;100.00
58622;BME280;44389;51.578;5.456;2023-03-03T00:12:45;102312.47;;;-0.73;100.00
58622;BME280;44389;51.578;5.456;2023-03-03T00:15:19;102316.03;;;-0.71;100.00
58622;BME280;44389;51.578;5.456;2023-03-03T00:17:45;102317.97;;;-0.69;100.00
58622;BME280;44389;51.578;5.456;2023-03-03T00:20:31;102330.03;;;-0.66;100.00
58622;BME280;44389;51.578;5.456;2023-03-03T00:23:47;102329.03;;;-0.59;100.00
58622;BME280;44389;51.578;5.456;2023-03-03T00:25:50;102324.09;;;-0.58;100.00
58622;BME280;44389;51.578;5.456;2023-03-03T00:28:32;102327.84;;;-0.54;100.00
58622;BME280;44389;51.578;5.456;2023-03-03T00:33:47;102331.41;;;-0.52;100.00
58622;BME280;44389;51.578;5.456;2023-03-03T00:38:41;102323.94;;;-0.51;100.00
58622;BME280;44389;51.578;5.456;2023-03-03T00:41:22;102323.94;;;-0.51;100.00
58622;BME280;44389;51.578;5.456;2023-03-03T00:43:48;102321.28;;;-0.52;100.00
58622;BME280;44389;51.578;5.456;2023-03-03T00:46:17;102328.13;;;-0.51;100.00
58622;BME280;44389;51.578;5.456;2023-03-03T00:48:44;102328.13;;;-0.51;100.00
58622;BME280;44389;51.578;5.456;2023-03-03T00:51:31;102327.53;;;-0.48;100.00
58622;BME280;44389;51.578;5.456;2023-03-03T00:53:58;102323.94;;;-0.51;100.00
58622;BME280;44389;51.578;5.456;2023-03-03T00:56:24;102319.78;;;-0.50;100.00
58622;BME280;44389;51.578;5.456;2023-03-03T00:58:50;102324.84;;;-0.50;100.00
58622;BME280;44389;51.578;5.456;2023-03-03T01:01:16;102321.59;;;-0.49;100.00
58622;BME280;44389;51.578;5.456;2023-03-03T01:03:42;102328.41;;;-0.48;100.00
58622;BME280;44389;51.578;5.456;2023-03-03T01:06:08;102331.28;;;-0.45;100.00
58622;BME280;44389;51.578;5.456;2023-03-03T01:08:34;102335.59;;;-0.44;100.00
58622;BME280;44389;51.578;5.456;2023-03-03T01:11:03;102335.88;;;-0.41;100.00
58622;BME280;44389;51.578;5.456;2023-03-03T01:13:31;102337.69;;;-0.40;100.00
58622;BME280;44389;51.578;5.456;2023-03-03T01:15:59;102340.50;;;-0.37;100.00
58622;BME280;44389;51.578;5.456;2023-03-03T01:18:25;102339.75;;;-0.36;100.00
58622;BME280;44389;51.578;5.456;2023-03-03T01:20:51;102339.75;;;-0.36;100.00
58622;BME280;44389;51.578;5.456;2023-03-03T01:23:16;102342.44;;;-0.34;100.00
58622;BME280;44389;51.578;5.456;2023-03-03T01:25:41;102342.59;;;-0.32;100.00
58622;BME280;44389;51.578;5.456;2023-03-03T01:28:07;102340.97;;;-0.32;100.00
58622;BME280;44389;51.578;5.456;2023-03-03T01:30:33;102331.84;;;-0.30;100.00
58622;BME280;44389;51.578;5.456;2023-03-03T01:32:58;102333.50;;;-0.30;100.00
58622;BME280;44389;51.578;5.456;2023-03-03T01:35:23;102346.47;;;-0.27;100.00
58622;BME280;44389;51.578;5.456;2023-03-03T01:37:48;102349.00;;;-0.27;100.00
58622;BME280;44389;51.578;5.456;2023-03-03T01:40:20;102352.28;;;-0.28;100.00
58622;BME280;44389;51.578;5.456;2023-03-03T01:42:45;102353.78;;;-0.22;100.00
58622;BME280;44389;51.578;5.456;2023-03-03T01:50:47;102353.75;;;-0.57;100.00
58622;BME280;44389;51.578;5.456;2023-03-03T01:53:20;102358.47;;;-0.69;100.00
58622;BME280;44389;51.578;5.456;2023-03-03T01:55:49;102357.56;;;-0.78;100.00
58622;BME280;44389;51.578;5.456;2023-03-03T01:58:25;102359.47;;;-0.84;100.00
58622;BME280;44389;51.578;5.456;2023-03-03T02:01:03;102355.00;;;-0.87;100.00
58622;BME280;44389;51.578;5.456;2023-03-03T02:03:29;102359.38;;;-0.77;100.00
58622;BME280;44389;51.578;5.456;2023-03-03T02:05:58;102350.25;;;-0.92;100.00
58622;BME280;44389;51.578;5.456;2023-03-03T02:08:30;102354.38;;;-1.02;100.00
58622;BME280;44389;51.578;5.456;2023-03-03T02:10:59;102349.75;;;-1.06;100.00
58622;BME280;44389;51.578;5.456;2023-03-03T02:13:25;102359.25;;;-1.12;100.00
58622;BME280;44389;51.578;5.456;2023-03-03T02:15:50;102358.34;;;-1.12;100.00
58622;BME280;44389;51.578;5.456;2023-03-03T02:18:19;102358.94;;;-1.15;100.00
58622;BME280;44389;51.578;5.456;2023-03-03T02:21:00;102362.22;;;-1.16;100.00
58622;BME280;44389;51.578;5.456;2023-03-03T02:26:30;102357.56;;;-1.20;100.00
58622;BME280;44389;51.578;5.456;2023-03-03T02:28:57;102349.97;;;-1.20;100.00
58622;BME280;44389;51.578;5.456;2023-03-03T02:31:25;102357.28;;;-1.23;100.00
58622;BME280;44389;51.578;5.456;2023-03-03T02:33:52;102366.06;;;-1.20;100.00
58622;BME280;44389;51.578;5.456;2023-03-03T02:36:23;102361.59;;;-1.22;100.00
58622;BME280;44389;51.578;5.456;2023-03-03T02:41:41;102349.41;;;-1.18;100.00
58622;BME280;44389;51.578;5.456;2023-03-03T02:44:11;102354.06;;;-1.13;100.00
58622;BME280;44389;51.578;5.456;2023-03-03T02:46:39;102352.41;;;-1.13;100.00
58622;BME280;44389;51.578;5.456;2023-03-03T02:49:07;102350.03;;;-1.11;100.00
58622;BME280;44389;51.578;5.456;2023-03-03T02:51:33;102353.03;;;-1.07;100.00
58622;BME280;44389;51.578;5.456;2023-03-03T02:53:59;102342.91;;;-1.07;100.00
58622;BME280;44389;51.578;5.456;2023-03-03T02:56:24;102344.84;;;-1.04;100.00
58622;BME280;44389;51.578;5.456;2023-03-03T02:58:50;102354.38;;;-1.02;100.00
58622;BME280;44389;51.578;5.456;2023-03-03T03:01:15;102352.88;;;-1.00;100.00
58622;BME280;44389;51.578;5.456;2023-03-03T03:03:41;102354.56;;;-0.91;100.00
58622;BME280;44389;51.578;5.456;2023-03-03T03:06:06;102353.22;;;-0.96;100.00
58622;BME280;44389;51.578;5.456;2023-03-03T03:08:32;102355.75;;;-0.96;100.00
58622;BME280;44389;51.578;5.456;2023-03-03T03:10:57;102348.28;;;-0.95;100.00
58622;BME280;44389;51.578;5.456;2023-03-03T03:13:23;102358.72;;;-0.92;100.00
58622;BME280;44389;51.578;5.456;2023-03-03T03:15:48;102357.97;;;-0.91;100.00
58622;BME280;44389;51.578;5.456;2023-03-03T03:18:14;102358.88;;;-0.90;100.00
58622;BME280;44389;51.578;5.456;2023-03-03T03:20:40;102361.25;;;-0.92;100.00
58622;BME280;44389;51.578;5.456;2023-03-03T03:23:06;102368.53;;;-0.95;100.00
58622;BME280;44389;51.578;5.456;2023-03-03T03:25:32;102362.59;;;-0.95;100.00
58622;BME280;44389;51.578;5.456;2023-03-03T03:27:57;102371.50;;;-0.99;100.00
58622;BME280;44389;51.578;5.456;2023-03-03T03:30:23;102367.63;;;-1.04;100.00
58622;BME280;44389;51.578;5.456;2023-03-03T03:32:48;102372.19;;;-1.09;100.00
58622;BME280;44389;51.578;5.456;2023-03-03T03:35:13;102374.44;;;-1.12;100.00
58622;BME280;44389;51.578;5.456;2023-03-03T03:37:39;102375.03;;;-1.14;100.00
58622;BME280;44389;51.578;5.456;2023-03-03T03:40:05;102378.88;;;-1.18;100.00
58622;BME280;44389;51.578;5.456;2023-03-03T03:42:31;102372.59;;;-1.22;100.00
58622;BME280;44389;51.578;5.456;2023-03-03T03:44:56;102374.09;;;-1.24;100.00
58622;BME280;44389;51.578;5.456;2023-03-03T03:47:21;102368.13;;;-1.24;100.00
58622;BME280;44389;51.578;5.456;2023-03-03T03:49:47;102370.66;;;-1.24;100.00
58622;BME280;44389;51.578;5.456;2023-03-03T03:52:12;102369.19;;;-1.22;100.00
58622;BME280;44389;51.578;5.456;2023-03-03T03:54:37;102366.06;;;-1.20;100.00
58622;BME280;44389;51.578;5.456;2023-03-03T03:57:03;102374.53;;;-1.19;100.00
58622;BME280;44389;51.578;5.456;2023-03-03T03:59:29;102378.28;;;-1.16;100.00
58622;BME280;44389;51.578;5.456;2023-03-03T04:01:54;102380.97;;;-1.14;100.00
58622;BME280;44389;51.578;5.456;2023-03-03T04:04:19;102374.44;;;-1.12;100.00
58622;BME280;44389;51.578;5.456;2023-03-03T04:06:45;102377.69;;;-1.13;100.00
58622;BME280;44389;51.578;5.456;2023-03-03T04:09:10;102387.09;;;-1.12;100.00
58622;BME280;44389;51.578;5.456;2023-03-03T04:11:35;102376.22;;;-1.11;100.00
58622;BME280;44389;51.578;5.456;2023-03-03T04:14:00;102389.03;;;-1.09;100.00
58622;BME280;44389;51.578;5.456;2023-03-03T04:16:26;102387.28;;;-1.02;100.00
58622;BME280;44389;51.578;5.456;2023-03-03T04:18:51;102382.66;;;-1.06;100.00
58622;BME280;44389;51.578;5.456;2023-03-03T04:21:16;102381.16;;;-1.04;100.00
58622;BME280;44389;51.578;5.456;2023-03-03T04:23:42;102379.69;;;-1.02;100.00
58622;BME280;44389;51.578;5.456;2023-03-03T04:26:07;102384.91;;;-1.00;100.00
58622;BME280;44389;51.578;5.456;2023-03-03T04:28:33;102381.63;;;-0.99;100.00
58622;BME280;44389;51.578;5.456;2023-03-03T04:30:58;102380.13;;;-0.97;100.00
58622;BME280;44389;51.578;5.456;2023-03-03T04:33:24;102375.97;;;-0.96;100.00
58622;BME280;44389;51.578;5.456;2023-03-03T04:35:49;102383.88;;;-0.93;100.00
58622;BME280;44389;51.578;5.456;2023-03-03T04:38:15;102375.69;;;-0.91;100.00
58622;BME280;44389;51.578;5.456;2023-03-03T04:40:41;102391.94;;;-0.89;100.00
58622;BME280;44389;51.578;5.456;2023-03-03T04:43:07;102384.50;;;-0.87;100.00
58622;BME280;44389;51.578;5.456;2023-03-03T04:45:32;102377.97;;;-0.85;100.00
58622;BME280;44389;51.578;5.456;2023-03-03T04:47:57;102385.84;;;-0.82;100.00
58622;BME280;44389;51.578;5.456;2023-03-03T04:50:23;102379.31;;;-0.80;100.00
58622;BME280;44389;51.578;5.456;2023-03-03T04:52:48;102384.69;;;-0.77;100.00
58622;BME280;44389;51.578;5.456;2023-03-03T04:55:13;102392.41;;;-0.75;100.00
58622;BME280;44389;51.578;5.456;2023-03-03T04:57:41;102385.88;;;-0.73;100.00
58622;BME280;44389;51.578;5.456;2023-03-03T05:00:08;102384.25;;;-0.73;100.00
58622;BME280;44389;51.578;5.456;2023-03-03T05:02:34;102391.25;;;-0.70;100.00
58622;BME280;44389;51.578;5.456;2023-03-03T05:04:59;102387.97;;;-0.69;100.00
58622;BME280;44389;51.578;5.456;2023-03-03T05:07:24;102384.72;;;-0.68;100.00
58622;BME280;44389;51.578;5.456;2023-03-03T05:09:50;102393.34;;;-0.66;100.00
58622;BME280;44389;51.578;5.456;2023-03-03T05:12:15;102392.75;;;-0.63;100.00
58622;BME280;44389;51.578;5.456;2023-03-03T05:14:41;102400.53;;;-0.62;100.00
58622;BME280;44389;51.578;5.456;2023-03-03T05:17:06;102398.00;;;-0.62;100.00
58622;BME280;44389;51.578;5.456;2023-03-03T05:19:32;102398.13;;;-0.60;100.00
58622;BME280;44389;51.578;5.456;2023-03-03T05:21:59;102398.13;;;-0.60;100.00
58622;BME280;44389;51.578;5.456;2023-03-03T05:24:24;102395.75;;;-0.59;100.00
58622;BME280;44389;51.578;5.456;2023-03-03T05:26:49;102405.28;;;-0.56;100.00
58622;BME280;44389;51.578;5.456;2023-03-03T05:29:14;102394.28;;;-0.57;100.00
58622;BME280;44389;51.578;5.456;2023-03-03T05:31:40;102391.16;;;-0.54;100.00
58622;BME280;44389;51.578;5.456;2023-03-03T05:34:05;102393.97;;;-0.51;100.00
58622;BME280;44389;51.578;5.456;2023-03-03T05:36:30;102394.84;;;-0.51;100.00
58622;BME280;44389;51.578;5.456;2023-03-03T05:38:56;102400.97;;;-0.48;100.00
58622;BME280;44389;51.578;5.456;2023-03-03T05:41:21;102397.84;;;-0.46;100.00
58622;BME280;44389;51.578;5.456;2023-03-03T05:43:46;102402.34;;;-0.43;100.00
58622;BME280;44389;51.578;5.456;2023-03-03T05:46:12;102399.06;;;-0.42;100.00
58622;BME280;44389;51.578;5.456;2023-03-03T05:48:37;102402.63;;;-0.40;100.00
58622;BME280;44389;51.578;5.456;2023-03-03T05:51:03;102405.34;;;-0.39;100.00
58622;BME280;44389;51.578;5.456;2023-03-03T05:53:29;102408.91;;;-0.37;100.00
58622;BME280;44389;51.578;5.456;2023-03-03T05:55:54;102406.50;;;-0.35;100.00
58622;BME280;44389;51.578;5.456;2023-03-03T05:58:20;102402.34;;;-0.35;100.00
58622;BME280;44389;51.578;5.456;2023-03-03T06:00:46;102405.91;;;-0.32;100.00
58622;BME280;44389;51.578;5.456;2023-03-03T06:03:11;102397.56;;;-0.31;100.00
58622;BME280;44389;51.578;5.456;2023-03-03T06:05:37;102410.56;;;-0.28;100.00
58622;BME280;44389;51.578;5.456;2023-03-03T06:08:02;102408.91;;;-0.28;100.00
58622;BME280;44389;51.578;5.456;2023-03-03T06:10:27;102406.38;;;-0.28;100.00
58622;BME280;44389;51.578;5.456;2023-03-03T06:12:53;102404.91;;;-0.26;100.00
58622;BME280;44389;51.578;5.456;2023-03-03T06:15:20;102415.19;;;-0.24;100.00
58622;BME280;44389;51.578;5.456;2023-03-03T06:17:45;102412.66;;;-0.24;100.00
58622;BME280;44389;51.578;5.456;2023-03-03T06:20:10;102422.78;;;-0.24;100.00
58622;BME280;44389;51.578;5.456;2023-03-03T06:22:36;102424.59;;;-0.23;100.00
58622;BME280;44389;51.578;5.456;2023-03-03T06:25:01;102428.88;;;-0.22;100.00
58622;BME280;44389;51.578;5.456;2023-03-03T06:27:26;102419.66;;;-0.22;100.00
58622;BME280;44389;51.578;5.456;2023-03-03T06:29:52;102435.16;;;-0.19;100.00
58622;BME280;44389;51.578;5.456;2023-03-03T06:32:17;102425.03;;;-0.19;100.00
58622;BME280;44389;51.578;5.456;2023-03-03T06:34:43;102434.72;;;-0.14;100.00
58622;BME280;44389;51.578;5.456;2023-03-03T06:37:08;102439.03;;;-0.13;100.00
58622;BME280;44389;51.578;5.456;2023-03-03T06:39:33;102439.94;;;-0.13;100.00
58622;BME280;44389;51.578;5.456;2023-03-03T06:41:59;102445.31;;;-0.10;100.00
58622;BME280;44389;51.578;5.456;2023-03-03T06:44:24;102448.00;;;-0.08;100.00
58622;BME280;44389;51.578;5.456;2023-03-03T06:46:50;102455.00;;;-0.06;100.00
58622;BME280;44389;51.578;5.456;2023-03-03T06:49:15;102463.50;;;-0.05;100.00
58622;BME280;44389;51.578;5.456;2023-03-03T06:51:40;102466.19;;;-0.04;100.00
58622;BME280;44389;51.578;5.456;2023-03-03T06:56:38;102468.28;;;0.01;100.00
58622;BME280;44389;51.578;5.456;2023-03-03T06:59:30;102473.03;;;0.06;100.00
58622;BME280;44389;51.578;5.456;2023-03-03T07:01:55;102464.56;;;0.06;100.00
58622;BME280;44389;51.578;5.456;2023-03-03T07:04:28;102467.84;;;0.05;100.00
58622;BME280;44389;51.578;5.456;2023-03-03T07:07:09;102475.72;;;0.08;100.00
58622;BME280;44389;51.578;5.456;2023-03-03T07:09:35;102471.44;;;0.07;100.00
58622;BME280;44389;51.578;5.456;2023-03-03T07:12:09;102472.16;;;0.06;100.00
58622;BME280;44389;51.578;5.456;2023-03-03T07:14:41;102476.78;;;0.10;100.00
58622;BME280;44389;51.578;5.456;2023-03-03T07:17:14;102476.03;;;0.11;100.00
58622;BME280;44389;51.578;5.456;2023-03-03T07:19:40;102472.00;;;0.13;100.00
58622;BME280;44389;51.578;5.456;2023-03-03T07:24:38;102478.41;;;0.18;100.00
58622;BME280;44389;51.578;5.456;2023-03-03T07:29:29;102479.47;;;0.20;100.00
58622;BME280;44389;51.578;5.456;2023-03-03T07:31:56;102488.75;;;0.20;100.00
58622;BME280;44389;51.578;5.456;2023-03-03T07:34:39;102490.22;;;0.26;100.00
58622;BME280;44389;51.578;5.456;2023-03-03T07:37:29;102499.91;;;0.30;100.00
58622;BME280;44389;51.578;5.456;2023-03-03T07:39:56;102492.31;;;0.30;100.00
58622;BME280;44389;51.578;5.456;2023-03-03T07:42:27;102500.97;;;0.32;100.00
58622;BME280;44389;51.578;5.456;2023-03-03T07:44:59;102509.47;;;0.33;100.00
58622;BME280;44389;51.578;5.456;2023-03-03T07:47:27;102505.00;;;0.30;100.00
58622;BME280;44389;51.578;5.456;2023-03-03T07:49:55;102507.53;;;0.30;100.00
58622;BME280;44389;51.578;5.456;2023-03-03T07:52:30;102515.13;;;0.30;100.00
58622;BME280;44389;51.578;5.456;2023-03-03T07:54:58;102518.72;;;0.32;100.00
58622;BME280;44389;51.578;5.456;2023-03-03T07:59:58;102514.22;;;0.39;100.00
58622;BME280;44389;51.578;5.456;2023-03-03T08:02:44;102514.84;;;0.45;100.00
58622;BME280;44389;51.578;5.456;2023-03-03T08:05:26;102511.25;;;0.52;100.00
58622;BME280;44389;51.578;5.456;2023-03-03T08:07:52;102526.63;;;0.53;100.00
58622;BME280;44389;51.578;5.456;2023-03-03T08:10:34;102522.31;;;0.61;100.00
58622;BME280;44389;51.578;5.456;2023-03-03T08:13:04;102517.38;;;0.62;100.00
58622;BME280;44389;51.578;5.456;2023-03-03T08:15:35;102528.41;;;0.63;100.00
58622;BME280;44389;51.578;5.456;2023-03-03T08:18:01;102523.78;;;0.59;100.00
58622;BME280;44389;51.578;5.456;2023-03-03T08:20:51;102526.19;;;0.57;100.00
58622;BME280;44389;51.578;5.456;2023-03-03T08:23:19;102532.88;;;0.57;100.00
58622;BME280;44389;51.578;5.456;2023-03-03T08:25:45;102536.63;;;0.60;100.00
58622;BME280;44389;51.578;5.456;2023-03-03T08:28:11;102534.41;;;0.63;100.00
58622;BME280;44389;51.578;5.456;2023-03-03T08:30:38;102533.81;;;0.66;100.00
58622;BME280;44389;51.578;5.456;2023-03-03T08:33:03;102536.75;;;0.71;100.00
58622;BME280;44389;51.578;5.456;2023-03-03T08:35:29;102541.09;;;0.80;100.00
58622;BME280;44389;51.578;5.456;2023-03-03T08:37:54;102537.34;;;0.86;100.00
58622;BME280;44389;51.578;5.456;2023-03-03T08:40:19;102544.38;;;0.88;100.00
58622;BME280;44389;51.578;5.456;2023-03-03T08:42:45;102549.13;;;0.85;100.00
58622;BME280;44389;51.578;5.456;2023-03-03T08:45:10;102547.38;;;0.84;100.00
58622;BME280;44389;51.578;5.456;2023-03-03T08:47:35;102547.94;;;0.90;100.00
58622;BME280;44389;51.578;5.456;2023-03-03T08:50:01;102545.72;;;0.93;100.00
58622;BME280;44389;51.578;5.456;2023-03-03T08:52:26;102550.03;;;0.94;100.00
58622;BME280;44389;51.578;5.456;2023-03-03T08:54:51;102553.31;;;1.02;100.00
58622;BME280;44389;51.578;5.456;2023-03-03T08:57:17;102559.88;;;1.00;100.00
58622;BME280;44389;51.578;5.456;2023-03-03T08:59:43;102561.34;;;1.07;100.00
58622;BME280;44389;51.578;5.456;2023-03-03T09:02:08;102569.38;;;1.29;100.00
58622;BME280;44389;51.578;5.456;2023-03-03T09:04:33;102557.28;;;1.26;100.00
58622;BME280;44389;51.578;5.456;2023-03-03T09:06:58;102562.53;;;1.28;100.00
58622;BME280;44389;51.578;5.456;2023-03-03T09:09:24;102566.69;;;1.27;100.00
58622;BME280;44389;51.578;5.456;2023-03-03T09:11:52;102570.28;;;1.38;100.00
58622;BME280;44389;51.578;5.456;2023-03-03T09:14:18;102567.63;;;1.64;100.00
58622;BME280;44389;51.578;5.456;2023-03-03T09:16:49;102566.97;;;1.76;100.00
58622;BME280;44389;51.578;5.456;2023-03-03T09:21:54;102565.44;;;2.14;100.00
58622;BME280;44389;51.578;5.456;2023-03-03T09:24:31;102570.91;;;2.19;100.00
58622;BME280;44389;51.578;5.456;2023-03-03T09:26:59;102570.06;;;2.38;100.00
58622;BME280;44389;51.578;5.456;2023-03-03T09:29:29;102573.16;;;2.25;100.00
58622;BME280;44389;51.578;5.456;2023-03-03T09:31:56;102575.34;;;2.30;100.00
58622;BME280;44389;51.578;5.456;2023-03-03T09:36:57;102568.84;;;2.43;100.00
58622;BME280;44389;51.578;5.456;2023-03-03T09:39:25;102567.31;;;2.45;100.00
58622;BME280;44389;51.578;5.456;2023-03-03T09:50:38;102581.84;;;2.65;100.00
58622;BME280;44389;51.578;5.456;2023-03-03T09:53:18;102581.09;;;2.66;100.00
58622;BME280;44389;51.578;5.456;2023-03-03T09:56:06;102588.03;;;2.58;100.00
58622;BME280;44389;51.578;5.456;2023-03-03T09:58:55;102580.22;;;2.57;100.00
58622;BME280;44389;51.578;5.456;2023-03-03T10:09:39;102589.81;;;2.40;100.00
58622;BME280;44389;51.578;5.456;2023-03-03T10:12:11;102592.53;;;2.33;100.00
58622;BME280;44389;51.578;5.456;2023-03-03T10:25:36;102586.38;;;2.78;100.00
58622;BME280;44389;51.578;5.456;2023-03-03T10:33:56;102597.97;;;3.04;100.00
58622;BME280;44389;51.578;5.456;2023-03-03T10:39:10;102590.31;;;3.23;99.04
58622;BME280;44389;51.578;5.456;2023-03-03T10:44:46;102591.44;;;3.56;98.46
58622;BME280;44389;51.578;5.456;2023-03-03T10:58:44;102577.72;;;5.20;86.55
58622;BME280;44389;51.578;5.456;2023-03-03T11:01:41;102588.38;;;5.26;87.49
58622;BME280;44389;51.578;5.456;2023-03-03T11:07:15;102578.47;;;5.19;87.74
58622;BME280;44389;51.578;5.456;2023-03-03T11:15:34;102586.72;;;5.05;90.65
58622;BME280;44389;51.578;5.456;2023-03-03T11:21:06;102589.41;;;4.96;89.70
58622;BME280;44389;51.578;5.456;2023-03-03T11:23:52;102581.78;;;4.75;88.97
58622;BME280;44389;51.578;5.456;2023-03-03T11:26:25;102572.63;;;4.57;90.20
58622;BME280;44389;51.578;5.456;2023-03-03T11:29:03;102574.31;;;4.46;90.80
58622;BME280;44389;51.578;5.456;2023-03-03T11:31:51;102575.59;;;4.41;89.96
58622;BME280;44389;51.578;5.456;2023-03-03T11:37:34;102568.63;;;4.81;89.58
58622;BME280;44389;51.578;5.456;2023-03-03T11:40:11;102572.16;;;5.92;87.97
58622;BME280;44389;51.578;5.456;2023-03-03T11:42:54;102565.78;;;7.03;83.71
58622;BME280;44389;51.578;5.456;2023-03-03T11:45:36;102564.00;;;8.27;79.51
58622;BME280;44389;51.578;5.456;2023-03-03T11:48:17;102560.16;;;8.33;74.94
58622;BME280;44389;51.578;5.456;2023-03-03T11:50:57;102553.16;;;8.31;74.38
58622;BME280;44389;51.578;5.456;2023-03-03T11:55:54;102557.19;;;8.27;73.38
58622;BME280;44389;51.578;5.456;2023-03-03T11:58:24;102555.72;;;8.44;72.07
58622;BME280;44389;51.578;5.456;2023-03-03T12:01:01;102554.59;;;8.52;71.49
58622;BME280;44389;51.578;5.456;2023-03-03T12:03:40;102555.09;;;9.00;70.67
58622;BME280;44389;51.578;5.456;2023-03-03T12:06:35;102555.47;;;9.48;70.36
58622;BME280;44389;51.578;5.456;2023-03-03T12:09:17;102554.38;;;9.03;68.34
58622;BME280;44389;51.578;5.456;2023-03-03T12:12:02;102547.47;;;8.48;71.00
58622;BME280;44389;51.578;5.456;2023-03-03T12:19:57;102547.63;;;6.76;76.17
58622;BME280;44389;51.578;5.456;2023-03-03T12:25:08;102536.84;;;7.29;74.69
58622;BME280;44389;51.578;5.456;2023-03-03T12:27:51;102537.03;;;8.33;71.47
58622;BME280;44389;51.578;5.456;2023-03-03T12:30:25;102532.16;;;9.32;70.64
58622;BME280;44389;51.578;5.456;2023-03-03T12:33:06;102526.31;;;10.06;67.02
58622;BME280;44389;51.578;5.456;2023-03-03T12:35:49;102529.09;;;10.54;62.63
58622;BME280;44389;51.578;5.456;2023-03-03T12:41:00;102516.94;;;11.14;59.50
58622;BME280;44389;51.578;5.456;2023-03-03T12:48:45;102518.47;;;10.19;58.56
58622;BME280;44389;51.578;5.456;2023-03-03T12:51:26;102515.56;;;9.27;62.92
58622;BME280;44389;51.578;5.456;2023-03-03T12:54:13;102517.59;;;9.04;64.61
58622;BME280;44389;51.578;5.456;2023-03-03T12:57:18;102521.03;;;9.46;65.94
58622;BME280;44389;51.578;5.456;2023-03-03T13:05:18;102520.03;;;9.02;64.54
58622;BME280;44389;51.578;5.456;2023-03-03T13:10:47;102503.50;;;10.42;62.27
58622;BME280;44389;51.578;5.456;2023-03-03T13:13:23;102497.16;;;10.67;57.22
58622;BME280;44389;51.578;5.456;2023-03-03T13:16:12;102493.69;;;11.14;59.73
58622;BME280;44389;51.578;5.456;2023-03-03T13:18:54;102496.72;;;11.90;58.44
58622;BME280;44389;51.578;5.456;2023-03-03T13:21:39;102500.00;;;12.38;56.00
58622;BME280;44389;51.578;5.456;2023-03-03T13:27:03;102493.25;;;12.78;50.25
58622;BME280;44389;51.578;5.456;2023-03-03T13:29:34;102487.25;;;13.16;48.91
58622;BME280;44389;51.578;5.456;2023-03-03T13:32:14;102483.69;;;12.95;50.65
58622;BME280;44389;51.578;5.456;2023-03-03T13:37:40;102484.84;;;12.46;52.26
58622;BME280;44389;51.578;5.456;2023-03-03T13:40:16;102481.03;;;11.68;51.11
58622;BME280;44389;51.578;5.456;2023-03-03T13:42:51;102487.94;;;12.02;51.43
58622;BME280;44389;51.578;5.456;2023-03-03T13:50:58;102477.00;;;11.24;52.97
58622;BME280;44389;51.578;5.456;2023-03-03T13:53:51;102472.53;;;11.05;54.87
58622;BME280;44389;51.578;5.456;2023-03-03T13:56:38;102471.00;;;10.92;55.57
58622;BME280;44389;51.578;5.456;2023-03-03T14:05:01;102472.88;;;9.59;57.86
58622;BME280;44389;51.578;5.456;2023-03-03T14:10:07;102469.72;;;10.23;56.45
58622;BME280;44389;51.578;5.456;2023-03-03T14:12:46;102465.19;;;10.03;55.87
58622;BME280;44389;51.578;5.456;2023-03-03T14:20:27;102465.69;;;9.68;58.55
58622;BME280;44389;51.578;5.456;2023-03-03T14:22:58;102461.25;;;9.50;58.20
58622;BME280;44389;51.578;5.456;2023-03-03T14:25:25;102460.19;;;9.05;59.24
58622;BME280;44389;51.578;5.456;2023-03-03T14:28:01;102461.75;;;8.75;60.61
58622;BME280;44389;51.578;5.456;2023-03-03T14:30:29;102461.25;;;8.40;61.55
58622;BME280;44389;51.578;5.456;2023-03-03T14:38:42;102468.91;;;7.86;66.18
58622;BME280;44389;51.578;5.456;2023-03-03T14:44:01;102452.00;;;7.51;67.20
58622;BME280;44389;51.578;5.456;2023-03-03T14:46:35;102448.69;;;7.15;68.03
58622;BME280;44389;51.578;5.456;2023-03-03T14:49:12;102450.22;;;7.00;69.60
58622;BME280;44389;51.578;5.456;2023-03-03T14:51:46;102449.34;;;6.87;69.36
58622;BME280;44389;51.578;5.456;2023-03-03T14:54:21;102449.59;;;6.67;71.33
58622;BME280;44389;51.578;5.456;2023-03-03T14:57:06;102446.28;;;6.44;71.99
58622;BME280;44389;51.578;5.456;2023-03-03T14:59:34;102455.97;;;6.24;72.79
58622;BME280;44389;51.578;5.456;2023-03-03T15:04:41;102440.50;;;6.35;72.81
58622;BME280;44389;51.578;5.456;2023-03-03T15:07:34;102434.56;;;6.59;72.56
58622;BME280;44389;51.578;5.456;2023-03-03T15:10:00;102430.63;;;6.88;71.06
58622;BME280;44389;51.578;5.456;2023-03-03T15:20:26;102427.31;;;6.66;69.26
58622;BME280;44389;51.578;5.456;2023-03-03T15:25:35;102416.09;;;6.64;69.90
58622;BME280;44389;51.578;5.456;2023-03-03T15:33:38;102407.06;;;6.45;70.38
58622;BME280;44389;51.578;5.456;2023-03-03T15:36:18;102409.09;;;6.25;71.39
58622;BME280;44389;51.578;5.456;2023-03-03T15:38:59;102421.34;;;6.06;73.61
58622;BME280;44389;51.578;5.456;2023-03-03T15:44:12;102412.59;;;5.80;74.65
58622;BME280;44389;51.578;5.456;2023-03-03T15:52:11;102403.31;;;5.58;75.48
58622;BME280;44389;51.578;5.456;2023-03-03T16:05:51;102394.16;;;5.96;74.58
58622;BME280;44389;51.578;5.456;2023-03-03T16:08:33;102393.31;;;6.07;75.53
58622;BME280;44389;51.578;5.456;2023-03-03T16:11:08;102396.22;;;6.12;74.00
58622;BME280;44389;51.578;5.456;2023-03-03T16:16:10;102393.84;;;6.15;75.01
58622;BME280;44389;51.578;5.456;2023-03-03T16:19:05;102393.09;;;6.16;75.28
58622;BME280;44389;51.578;5.456;2023-03-03T16:25:21;102399.53;;;6.11;74.26